ICE113 BIKF-BGGH
Flight info
| Callsign | ICE113 |
|---|---|
| Flight time | 2h 0m |
| Altitude | 34000 |
| Route | M076F340 SORIR2C SORIR DCT SOPEN DCT SABAG DCT NAPIB DCT INBAN DCT GETDA DCT |
| Aircraft | A21N/M-SDE2E3FGHIRWXY/LB1 |
Departure
| Time | 2026-04-28 11:48 |
|---|---|
| Airport | Keflavik International Airport (BIKF) |
Arrival
| Time | 2026-04-28 13:49 |
|---|---|
| Airport | Nuuk International Airport (BGGH) |
| Time | Latitude | Longitude | Altitude | Speed | Heading |
|---|---|---|---|---|---|
| 2026-04-28 11:15 | 63.99380 | -22.62193 | 139 ft | 0 kts | 238° |
| 2026-04-28 11:38 | 63.99380 | -22.62192 | 146 ft | 0 kts | 238° |
| 2026-04-28 11:38 | 63.99387 | -22.62166 | 146 ft | 2 kts | 234° |
| 2026-04-28 11:39 | 63.99396 | -22.62138 | 146 ft | 2 kts | 234° |
| 2026-04-28 11:39 | 63.99406 | -22.62111 | 146 ft | 2 kts | 228° |
| 2026-04-28 11:39 | 63.99416 | -22.62086 | 146 ft | 2 kts | 219° |
| 2026-04-28 11:39 | 63.99429 | -22.62066 | 146 ft | 2 kts | 201° |
| 2026-04-28 11:40 | 63.99444 | -22.62062 | 146 ft | 2 kts | 165° |
| 2026-04-28 11:40 | 63.99457 | -22.62075 | 146 ft | 2 kts | 149° |
| 2026-04-28 11:40 | 63.99460 | -22.62079 | 146 ft | 0 kts | 149° |
| 2026-04-28 11:43 | 63.99450 | -22.62066 | 146 ft | 4 kts | 150° |
| 2026-04-28 11:43 | 63.99417 | -22.62025 | 146 ft | 7 kts | 150° |
| 2026-04-28 11:43 | 63.99360 | -22.61987 | 146 ft | 10 kts | 176° |
| 2026-04-28 11:43 | 63.99283 | -22.61986 | 146 ft | 12 kts | 180° |
| 2026-04-28 11:44 | 63.99206 | -22.61985 | 146 ft | 5 kts | 180° |
| 2026-04-28 11:44 | 63.99176 | -22.61938 | 146 ft | 7 kts | 110° |
| 2026-04-28 11:44 | 63.99173 | -22.61811 | 148 ft | 10 kts | 90° |
| 2026-04-28 11:44 | 63.99173 | -22.61638 | 152 ft | 12 kts | 90° |
| 2026-04-28 11:45 | 63.99173 | -22.61428 | 156 ft | 14 kts | 90° |
| 2026-04-28 11:45 | 63.99174 | -22.61186 | 161 ft | 16 kts | 90° |
| 2026-04-28 11:45 | 63.99174 | -22.60922 | 166 ft | 15 kts | 90° |
| 2026-04-28 11:45 | 63.99173 | -22.60785 | 170 ft | 0 kts | 90° |
| 2026-04-28 11:46 | 63.99173 | -22.60783 | 170 ft | 1 kts | 90° |
| 2026-04-28 11:47 | 63.99173 | -22.60730 | 172 ft | 6 kts | 90° |
| 2026-04-28 11:47 | 63.99173 | -22.60613 | 177 ft | 9 kts | 92° |
| 2026-04-28 11:47 | 63.99124 | -22.60534 | 179 ft | 11 kts | 182° |
| 2026-04-28 11:47 | 63.99116 | -22.60535 | 180 ft | 0 kts | 181° |
| 2026-04-28 11:48 | 63.99068 | -22.60538 | 179 ft | 30 kts | 181° |
| 2026-04-28 11:48 | 63.98609 | -22.60550 | 178 ft | 100 kts | 180° |
| 2026-04-28 11:48 | 63.97698 | -22.60531 | 259 ft | 150 kts | 179° |
| 2026-04-28 11:48 | 63.96636 | -22.60480 | 907 ft | 154 kts | 180° |
| 2026-04-28 11:49 | 63.95551 | -22.60478 | 1726 ft | 157 kts | 184° |
| 2026-04-28 11:49 | 63.94397 | -22.60501 | 2316 ft | 177 kts | 183° |
| 2026-04-28 11:49 | 63.93078 | -22.60522 | 2785 ft | 201 kts | 183° |
| 2026-04-28 11:49 | 63.91659 | -22.60699 | 3584 ft | 207 kts | 192° |
| 2026-04-28 11:50 | 63.90345 | -22.62024 | 4518 ft | 211 kts | 216° |
| 2026-04-28 11:50 | 63.89432 | -22.64757 | 5290 ft | 231 kts | 242° |
| 2026-04-28 11:50 | 63.89168 | -22.68494 | 6071 ft | 251 kts | 261° |
| 2026-04-28 11:50 | 63.89212 | -22.72484 | 6905 ft | 253 kts | 262° |
| 2026-04-28 11:51 | 63.89270 | -22.76498 | 7698 ft | 256 kts | 263° |
| 2026-04-28 11:51 | 63.89619 | -22.80575 | 8425 ft | 276 kts | 281° |
| 2026-04-28 11:51 | 63.90581 | -22.84477 | 9176 ft | 290 kts | 292° |
| 2026-04-28 11:51 | 63.91709 | -22.88324 | 9902 ft | 295 kts | 292° |
| 2026-04-28 11:52 | 63.92788 | -22.92323 | 10248 ft | 302 kts | 282° |
| 2026-04-28 11:52 | 63.93369 | -22.96940 | 10527 ft | 307 kts | 270° |
| 2026-04-28 11:52 | 63.93730 | -23.01844 | 10899 ft | 320 kts | 268° |
| 2026-04-28 11:52 | 63.94054 | -23.06805 | 11556 ft | 324 kts | 268° |
| 2026-04-28 11:53 | 63.94387 | -23.11867 | 12295 ft | 326 kts | 268° |
| 2026-04-28 11:53 | 63.94732 | -23.16982 | 13025 ft | 328 kts | 268° |
| 2026-04-28 11:53 | 63.95089 | -23.22123 | 13721 ft | 331 kts | 268° |
| 2026-04-28 11:53 | 63.95456 | -23.27296 | 14306 ft | 334 kts | 268° |
| 2026-04-28 11:54 | 63.95832 | -23.32540 | 14938 ft | 337 kts | 268° |
| 2026-04-28 11:54 | 63.96218 | -23.37806 | 15516 ft | 340 kts | 268° |
| 2026-04-28 11:54 | 63.96806 | -23.43113 | 16071 ft | 357 kts | 279° |
| 2026-04-28 11:54 | 63.98082 | -23.48187 | 16613 ft | 381 kts | 295° |
| 2026-04-28 11:55 | 63.99770 | -23.52925 | 17143 ft | 388 kts | 298° |
| 2026-04-28 11:55 | 64.01521 | -23.57646 | 17640 ft | 391 kts | 298° |
| 2026-04-28 11:55 | 64.03264 | -23.62431 | 18220 ft | 395 kts | 298° |
| 2026-04-28 11:55 | 64.05007 | -23.67290 | 18715 ft | 398 kts | 297° |
| 2026-04-28 11:56 | 64.06749 | -23.72180 | 19212 ft | 401 kts | 297° |
| 2026-04-28 11:56 | 64.08508 | -23.77160 | 19723 ft | 403 kts | 297° |
| 2026-04-28 11:56 | 64.10273 | -23.82172 | 20232 ft | 406 kts | 297° |
| 2026-04-28 11:56 | 64.12053 | -23.87222 | 20737 ft | 409 kts | 298° |
| 2026-04-28 11:57 | 64.13840 | -23.92318 | 21233 ft | 412 kts | 297° |
| 2026-04-28 11:57 | 64.15632 | -23.97463 | 21713 ft | 415 kts | 297° |
| 2026-04-28 11:57 | 64.17435 | -24.02624 | 22197 ft | 418 kts | 298° |
| 2026-04-28 11:57 | 64.19257 | -24.07837 | 22674 ft | 421 kts | 298° |
| 2026-04-28 11:58 | 64.21088 | -24.13102 | 23134 ft | 424 kts | 298° |
| 2026-04-28 11:58 | 64.22921 | -24.18376 | 23548 ft | 426 kts | 298° |
| 2026-04-28 11:58 | 64.24773 | -24.23724 | 23981 ft | 429 kts | 298° |
| 2026-04-28 11:58 | 64.26627 | -24.29091 | 24336 ft | 431 kts | 298° |
| 2026-04-28 11:59 | 64.28496 | -24.34525 | 24720 ft | 434 kts | 298° |
| 2026-04-28 11:59 | 64.30373 | -24.39988 | 25102 ft | 436 kts | 298° |
| 2026-04-28 11:59 | 64.32256 | -24.45479 | 25493 ft | 438 kts | 297° |
| 2026-04-28 11:59 | 64.34145 | -24.51002 | 25866 ft | 439 kts | 297° |
| 2026-04-28 12:00 | 64.36034 | -24.56559 | 26246 ft | 441 kts | 297° |
| 2026-04-28 12:00 | 64.37930 | -24.62146 | 26621 ft | 443 kts | 297° |
| 2026-04-28 12:00 | 64.39741 | -24.67853 | 26989 ft | 436 kts | 291° |
| 2026-04-28 12:00 | 64.41058 | -24.74033 | 27362 ft | 422 kts | 279° |
| 2026-04-28 12:01 | 64.41992 | -24.80432 | 27704 ft | 419 kts | 277° |
| 2026-04-28 12:01 | 64.42864 | -24.86876 | 28050 ft | 421 kts | 277° |
| 2026-04-28 12:01 | 64.43739 | -24.93314 | 28394 ft | 423 kts | 277° |
| 2026-04-28 12:01 | 64.44635 | -24.99824 | 28757 ft | 425 kts | 277° |
| 2026-04-28 12:02 | 64.45536 | -25.06322 | 29077 ft | 427 kts | 278° |
| 2026-04-28 12:02 | 64.46449 | -25.12899 | 29371 ft | 430 kts | 278° |
| 2026-04-28 12:02 | 64.47364 | -25.19507 | 29675 ft | 432 kts | 278° |
| 2026-04-28 12:02 | 64.48273 | -25.26146 | 29926 ft | 433 kts | 278° |
| 2026-04-28 12:03 | 64.49186 | -25.32830 | 30183 ft | 435 kts | 278° |
| 2026-04-28 12:03 | 64.50097 | -25.39498 | 30432 ft | 435 kts | 278° |
| 2026-04-28 12:03 | 64.51005 | -25.46194 | 30695 ft | 436 kts | 278° |
| 2026-04-28 12:03 | 64.51913 | -25.52913 | 30945 ft | 436 kts | 278° |
| 2026-04-28 12:04 | 64.52820 | -25.59643 | 31208 ft | 437 kts | 278° |
| 2026-04-28 12:04 | 64.53725 | -25.66383 | 31427 ft | 437 kts | 278° |
| 2026-04-28 12:04 | 64.54627 | -25.73138 | 31670 ft | 438 kts | 278° |
| 2026-04-28 12:04 | 64.55526 | -25.79891 | 31908 ft | 438 kts | 278° |
| 2026-04-28 12:05 | 64.56411 | -25.86581 | 32133 ft | 438 kts | 277° |
| 2026-04-28 12:05 | 64.57318 | -25.93453 | 32359 ft | 439 kts | 278° |
| 2026-04-28 12:05 | 64.58204 | -26.00157 | 32566 ft | 439 kts | 278° |
| 2026-04-28 12:05 | 64.59065 | -26.06717 | 32774 ft | 440 kts | 278° |
| 2026-04-28 12:06 | 64.59984 | -26.13740 | 32991 ft | 441 kts | 277° |
| 2026-04-28 12:06 | 64.60868 | -26.20596 | 33127 ft | 444 kts | 277° |
| 2026-04-28 12:06 | 64.61758 | -26.27489 | 33295 ft | 445 kts | 277° |
| 2026-04-28 12:06 | 64.62646 | -26.34398 | 33492 ft | 445 kts | 277° |
| 2026-04-28 12:07 | 64.63534 | -26.41319 | 33641 ft | 446 kts | 277° |
| 2026-04-28 12:07 | 64.64421 | -26.48264 | 33656 ft | 446 kts | 277° |
| 2026-04-28 12:07 | 64.66178 | -26.62126 | 33626 ft | 445 kts | 277° |
| 2026-04-28 12:08 | 64.67923 | -26.75997 | 33616 ft | 445 kts | 277° |
| 2026-04-28 12:08 | 64.69662 | -26.89899 | 33620 ft | 446 kts | 277° |
| 2026-04-28 12:09 | 64.71090 | -27.03921 | 33593 ft | 443 kts | 274° |
| 2026-04-28 12:09 | 64.72442 | -27.17976 | 33584 ft | 443 kts | 274° |
| 2026-04-28 12:10 | 64.73782 | -27.32087 | 33598 ft | 446 kts | 274° |
| 2026-04-28 12:10 | 64.75121 | -27.46264 | 33562 ft | 446 kts | 274° |
| 2026-04-28 12:11 | 64.76445 | -27.60464 | 33561 ft | 446 kts | 274° |
| 2026-04-28 12:11 | 64.77753 | -27.74671 | 33549 ft | 446 kts | 273° |
| 2026-04-28 12:12 | 64.79046 | -27.88873 | 33586 ft | 445 kts | 274° |
| 2026-04-28 12:12 | 64.80328 | -28.03070 | 33546 ft | 444 kts | 273° |
| 2026-04-28 12:13 | 64.81587 | -28.17262 | 33524 ft | 444 kts | 273° |
| 2026-04-28 12:13 | 64.82839 | -28.31456 | 33519 ft | 444 kts | 273° |
| 2026-04-28 12:14 | 64.84078 | -28.45674 | 33546 ft | 445 kts | 273° |
| 2026-04-28 12:14 | 64.85303 | -28.59929 | 33496 ft | 445 kts | 272° |
| 2026-04-28 12:15 | 64.86512 | -28.74192 | 33490 ft | 445 kts | 272° |
| 2026-04-28 12:15 | 64.87688 | -28.88377 | 33478 ft | 445 kts | 272° |
| 2026-04-28 12:16 | 64.88859 | -29.02659 | 33481 ft | 444 kts | 272° |
| 2026-04-28 12:16 | 64.90023 | -29.16914 | 33467 ft | 443 kts | 272° |
| 2026-04-28 12:17 | 64.91178 | -29.31188 | 33462 ft | 443 kts | 272° |
| 2026-04-28 12:17 | 64.92326 | -29.45464 | 33436 ft | 443 kts | 272° |
| 2026-04-28 12:18 | 64.93451 | -29.59747 | 33433 ft | 443 kts | 272° |
| 2026-04-28 12:18 | 64.94574 | -29.74029 | 33433 ft | 443 kts | 272° |
| 2026-04-28 12:19 | 64.95666 | -29.88317 | 33405 ft | 442 kts | 272° |
| 2026-04-28 12:19 | 64.96759 | -30.02610 | 33434 ft | 443 kts | 272° |
| 2026-04-28 12:20 | 64.97842 | -30.16946 | 33410 ft | 443 kts | 272° |
| 2026-04-28 12:20 | 64.98721 | -30.28860 | 33393 ft | 443 kts | 271° |
| 2026-04-28 12:21 | 64.99732 | -30.43208 | 33387 ft | 443 kts | 271° |
| 2026-04-28 12:21 | 65.00775 | -30.57562 | 33385 ft | 443 kts | 271° |
| 2026-04-28 12:22 | 65.01803 | -30.71929 | 33375 ft | 443 kts | 271° |
| 2026-04-28 12:22 | 65.02795 | -30.86315 | 33382 ft | 445 kts | 271° |
| 2026-04-28 12:23 | 65.03788 | -31.00790 | 33360 ft | 446 kts | 271° |
| 2026-04-28 12:23 | 65.04770 | -31.15276 | 33362 ft | 445 kts | 271° |
| 2026-04-28 12:24 | 65.05744 | -31.29749 | 33346 ft | 445 kts | 271° |
| 2026-04-28 12:24 | 65.06690 | -31.44236 | 33329 ft | 445 kts | 271° |
| 2026-04-28 12:25 | 65.07634 | -31.58733 | 33317 ft | 445 kts | 271° |
| 2026-04-28 12:25 | 65.08557 | -31.73139 | 33315 ft | 445 kts | 271° |
| 2026-04-28 12:26 | 65.09476 | -31.87641 | 33307 ft | 444 kts | 271° |
| 2026-04-28 12:26 | 65.10370 | -32.02131 | 33294 ft | 444 kts | 270° |
| 2026-04-28 12:27 | 65.11234 | -32.16645 | 33331 ft | 445 kts | 271° |
| 2026-04-28 12:27 | 65.12095 | -32.31219 | 33287 ft | 446 kts | 271° |
| 2026-04-28 12:28 | 65.12954 | -32.45791 | 33282 ft | 446 kts | 271° |
| 2026-04-28 12:28 | 65.13796 | -32.60382 | 33273 ft | 446 kts | 270° |
| 2026-04-28 12:29 | 65.15027 | -32.82278 | 33257 ft | 445 kts | 270° |
| 2026-04-28 12:30 | 65.15832 | -32.96861 | 33266 ft | 445 kts | 270° |
| 2026-04-28 12:30 | 65.16627 | -33.11448 | 33258 ft | 444 kts | 270° |
| 2026-04-28 12:31 | 65.17384 | -33.26030 | 33280 ft | 444 kts | 270° |
| 2026-04-28 12:31 | 65.18157 | -33.40589 | 33263 ft | 445 kts | 271° |
| 2026-04-28 12:32 | 65.18897 | -33.55219 | 33247 ft | 445 kts | 270° |
| 2026-04-28 12:32 | 65.19630 | -33.69853 | 33239 ft | 445 kts | 271° |
| 2026-04-28 12:33 | 65.20356 | -33.84494 | 33233 ft | 445 kts | 270° |
| 2026-04-28 12:33 | 65.21065 | -33.99152 | 33232 ft | 445 kts | 270° |
| 2026-04-28 12:34 | 65.21753 | -34.13806 | 33230 ft | 445 kts | 270° |
| 2026-04-28 12:34 | 65.22426 | -34.28468 | 33229 ft | 445 kts | 270° |
| 2026-04-28 12:35 | 65.23087 | -34.43142 | 33235 ft | 446 kts | 270° |
| 2026-04-28 12:35 | 65.23736 | -34.57855 | 33235 ft | 446 kts | 271° |
| 2026-04-28 12:36 | 65.24371 | -34.72603 | 33222 ft | 447 kts | 271° |
| 2026-04-28 12:36 | 65.25000 | -34.87362 | 33222 ft | 447 kts | 271° |
| 2026-04-28 12:37 | 65.25606 | -35.02124 | 33215 ft | 447 kts | 270° |
| 2026-04-28 12:37 | 65.26191 | -35.16791 | 33215 ft | 447 kts | 270° |
| 2026-04-28 12:38 | 65.26688 | -35.31561 | 33215 ft | 444 kts | 267° |
| 2026-04-28 12:38 | 65.26875 | -35.46287 | 33221 ft | 443 kts | 267° |
| 2026-04-28 12:39 | 65.27038 | -35.60979 | 33213 ft | 442 kts | 267° |
| 2026-04-28 12:39 | 65.27178 | -35.75654 | 33209 ft | 442 kts | 266° |
| 2026-04-28 12:40 | 65.27304 | -35.90352 | 33228 ft | 443 kts | 267° |
| 2026-04-28 12:40 | 65.27427 | -36.05101 | 33210 ft | 445 kts | 267° |
| 2026-04-28 12:41 | 65.27535 | -36.19859 | 33212 ft | 445 kts | 267° |
| 2026-04-28 12:41 | 65.27657 | -36.34633 | 33209 ft | 445 kts | 267° |
| 2026-04-28 12:42 | 65.27739 | -36.49395 | 33211 ft | 444 kts | 266° |
| 2026-04-28 12:42 | 65.27786 | -36.64153 | 33210 ft | 444 kts | 266° |
| 2026-04-28 12:43 | 65.27827 | -36.78922 | 33210 ft | 444 kts | 266° |
| 2026-04-28 12:43 | 65.27896 | -36.93685 | 33217 ft | 444 kts | 266° |
| 2026-04-28 12:44 | 65.27928 | -37.08437 | 33215 ft | 444 kts | 266° |
| 2026-04-28 12:44 | 65.27929 | -37.23190 | 33231 ft | 444 kts | 266° |
| 2026-04-28 12:45 | 65.27925 | -37.37881 | 33218 ft | 445 kts | 266° |
| 2026-04-28 12:45 | 65.27905 | -37.52601 | 33230 ft | 445 kts | 266° |
| 2026-04-28 12:46 | 65.27875 | -37.67405 | 33224 ft | 447 kts | 266° |
| 2026-04-28 12:46 | 65.27824 | -37.82260 | 33218 ft | 447 kts | 266° |
| 2026-04-28 12:47 | 65.27761 | -37.97117 | 33224 ft | 447 kts | 266° |
| 2026-04-28 12:47 | 65.27686 | -38.11967 | 33226 ft | 447 kts | 266° |
| 2026-04-28 12:48 | 65.27590 | -38.26807 | 33222 ft | 447 kts | 266° |
| 2026-04-28 12:48 | 65.27487 | -38.41652 | 33230 ft | 447 kts | 265° |
| 2026-04-28 12:49 | 65.27368 | -38.56480 | 33236 ft | 446 kts | 266° |
| 2026-04-28 12:49 | 65.27230 | -38.71306 | 33250 ft | 447 kts | 266° |
| 2026-04-28 12:50 | 65.27084 | -38.86148 | 33244 ft | 447 kts | 266° |
| 2026-04-28 12:50 | 65.26916 | -39.00988 | 33243 ft | 447 kts | 266° |
| 2026-04-28 12:51 | 65.26734 | -39.15815 | 33259 ft | 447 kts | 266° |
| 2026-04-28 12:51 | 65.26531 | -39.30648 | 33260 ft | 447 kts | 266° |
| 2026-04-28 12:52 | 65.26324 | -39.45470 | 33259 ft | 447 kts | 265° |
| 2026-04-28 12:52 | 65.26100 | -39.60287 | 33273 ft | 446 kts | 266° |
| 2026-04-28 12:53 | 65.25863 | -39.75026 | 33279 ft | 444 kts | 266° |
| 2026-04-28 12:53 | 65.25611 | -39.89757 | 33282 ft | 444 kts | 265° |
| 2026-04-28 12:54 | 65.25352 | -40.04446 | 33301 ft | 439 kts | 265° |
| 2026-04-28 12:54 | 65.25074 | -40.19055 | 33293 ft | 442 kts | 265° |
| 2026-04-28 12:55 | 65.24775 | -40.33543 | 33331 ft | 438 kts | 265° |
| 2026-04-28 12:55 | 65.24472 | -40.48225 | 33357 ft | 442 kts | 265° |
| 2026-04-28 12:56 | 65.24164 | -40.62703 | 33359 ft | 437 kts | 265° |
| 2026-04-28 12:56 | 65.23843 | -40.77218 | 33413 ft | 441 kts | 265° |
| 2026-04-28 12:57 | 65.23468 | -40.91724 | 33444 ft | 435 kts | 265° |
| 2026-04-28 12:57 | 65.23093 | -41.06222 | 33459 ft | 440 kts | 265° |
| 2026-04-28 12:58 | 65.22739 | -41.20709 | 33515 ft | 436 kts | 265° |
| 2026-04-28 12:58 | 65.22364 | -41.35218 | 33585 ft | 440 kts | 265° |
| 2026-04-28 12:59 | 65.21946 | -41.49734 | 33592 ft | 439 kts | 265° |
| 2026-04-28 12:59 | 65.21526 | -41.64283 | 33635 ft | 439 kts | 265° |
| 2026-04-28 13:00 | 65.21097 | -41.78740 | 33640 ft | 436 kts | 265° |
| 2026-04-28 13:00 | 65.20655 | -41.93191 | 33682 ft | 438 kts | 265° |
| 2026-04-28 13:01 | 65.20199 | -42.07507 | 33725 ft | 436 kts | 265° |
| 2026-04-28 13:01 | 65.19724 | -42.21980 | 33727 ft | 438 kts | 265° |
| 2026-04-28 13:02 | 65.19241 | -42.36362 | 33731 ft | 435 kts | 265° |
| 2026-04-28 13:02 | 65.18746 | -42.50826 | 33766 ft | 438 kts | 264° |
| 2026-04-28 13:03 | 65.18236 | -42.65161 | 33773 ft | 435 kts | 264° |
| 2026-04-28 13:03 | 65.17712 | -42.79506 | 33765 ft | 434 kts | 265° |
| 2026-04-28 13:04 | 65.17178 | -42.93736 | 33788 ft | 434 kts | 265° |
| 2026-04-28 13:04 | 65.16640 | -43.07938 | 33817 ft | 432 kts | 265° |
| 2026-04-28 13:05 | 65.16078 | -43.22162 | 33795 ft | 435 kts | 264° |
| 2026-04-28 13:05 | 65.15492 | -43.36430 | 33817 ft | 430 kts | 264° |
| 2026-04-28 13:06 | 65.14903 | -43.50656 | 33811 ft | 434 kts | 264° |
| 2026-04-28 13:06 | 65.14306 | -43.64856 | 33820 ft | 429 kts | 264° |
| 2026-04-28 13:07 | 65.13784 | -43.79045 | 33829 ft | 431 kts | 266° |
| 2026-04-28 13:07 | 65.13376 | -43.93222 | 33835 ft | 429 kts | 266° |
| 2026-04-28 13:08 | 65.12967 | -44.07424 | 33854 ft | 431 kts | 267° |
| 2026-04-28 13:08 | 65.12553 | -44.21569 | 33845 ft | 429 kts | 266° |
| 2026-04-28 13:09 | 65.12106 | -44.35739 | 33856 ft | 430 kts | 266° |
| 2026-04-28 13:09 | 65.11726 | -44.47464 | 33857 ft | 426 kts | 266° |
| 2026-04-28 13:10 | 65.11253 | -44.61610 | 33896 ft | 432 kts | 266° |
| 2026-04-28 13:10 | 65.10777 | -44.75789 | 33890 ft | 430 kts | 266° |
| 2026-04-28 13:11 | 65.10283 | -44.90041 | 33899 ft | 435 kts | 266° |
| 2026-04-28 13:11 | 65.09774 | -45.04283 | 33912 ft | 434 kts | 266° |
| 2026-04-28 13:12 | 65.09248 | -45.18564 | 33929 ft | 435 kts | 265° |
| 2026-04-28 13:12 | 65.08715 | -45.32790 | 33937 ft | 434 kts | 265° |
| 2026-04-28 13:13 | 65.08154 | -45.47118 | 33947 ft | 437 kts | 265° |
| 2026-04-28 13:13 | 65.07583 | -45.61400 | 33960 ft | 436 kts | 265° |
| 2026-04-28 13:14 | 65.06998 | -45.75732 | 33958 ft | 436 kts | 265° |
| 2026-04-28 13:14 | 65.06408 | -45.90016 | 33966 ft | 435 kts | 265° |
| 2026-04-28 13:15 | 65.05805 | -46.04204 | 33977 ft | 434 kts | 265° |
| 2026-04-28 13:15 | 65.05179 | -46.18427 | 33989 ft | 434 kts | 265° |
| 2026-04-28 13:16 | 65.04544 | -46.32653 | 33983 ft | 434 kts | 265° |
| 2026-04-28 13:16 | 65.03894 | -46.46865 | 33983 ft | 434 kts | 264° |
| 2026-04-28 13:17 | 65.03235 | -46.61085 | 33989 ft | 435 kts | 265° |
| 2026-04-28 13:17 | 65.02562 | -46.75364 | 34002 ft | 437 kts | 264° |
| 2026-04-28 13:18 | 65.01865 | -46.89663 | 34000 ft | 438 kts | 264° |
| 2026-04-28 13:18 | 65.01155 | -47.03940 | 34000 ft | 437 kts | 264° |
| 2026-04-28 13:19 | 65.00439 | -47.18199 | 34009 ft | 437 kts | 264° |
| 2026-04-28 13:19 | 64.99705 | -47.32467 | 34013 ft | 437 kts | 264° |
| 2026-04-28 13:20 | 64.98957 | -47.46709 | 34017 ft | 437 kts | 264° |
| 2026-04-28 13:20 | 64.98202 | -47.60861 | 34037 ft | 437 kts | 264° |
| 2026-04-28 13:21 | 64.97420 | -47.75024 | 34036 ft | 436 kts | 264° |
| 2026-04-28 13:21 | 64.96642 | -47.89228 | 34041 ft | 437 kts | 264° |
| 2026-04-28 13:22 | 64.95843 | -48.03457 | 34046 ft | 437 kts | 264° |
| 2026-04-28 13:22 | 64.95033 | -48.17653 | 34055 ft | 437 kts | 264° |
| 2026-04-28 13:23 | 64.94206 | -48.31842 | 34060 ft | 437 kts | 263° |
| 2026-04-28 13:23 | 64.93364 | -48.46010 | 34067 ft | 436 kts | 263° |
| 2026-04-28 13:24 | 64.92514 | -48.60174 | 34071 ft | 436 kts | 263° |
| 2026-04-28 13:24 | 64.91663 | -48.74089 | 34078 ft | 436 kts | 263° |
| 2026-04-28 13:25 | 64.90770 | -48.88415 | 34090 ft | 436 kts | 263° |
| 2026-04-28 13:25 | 64.89876 | -49.02522 | 34085 ft | 433 kts | 263° |
| 2026-04-28 13:26 | 64.88977 | -49.16505 | 34105 ft | 432 kts | 263° |
| 2026-04-28 13:26 | 64.88063 | -49.30478 | 34117 ft | 432 kts | 263° |
| 2026-04-28 13:27 | 64.87139 | -49.44438 | 34118 ft | 432 kts | 263° |
| 2026-04-28 13:27 | 64.86202 | -49.58378 | 34117 ft | 431 kts | 263° |
| 2026-04-28 13:27 | 64.85731 | -49.65329 | 34015 ft | 429 kts | 263° |
| 2026-04-28 13:28 | 64.85260 | -49.72242 | 33061 ft | 431 kts | 263° |
| 2026-04-28 13:28 | 64.84778 | -49.79263 | 32069 ft | 436 kts | 263° |
| 2026-04-28 13:28 | 64.84289 | -49.86266 | 31427 ft | 432 kts | 263° |
| 2026-04-28 13:28 | 64.83804 | -49.93178 | 30871 ft | 426 kts | 263° |
| 2026-04-28 13:29 | 64.83201 | -49.99959 | 30271 ft | 424 kts | 256° |
| 2026-04-28 13:29 | 64.82101 | -50.06360 | 29713 ft | 419 kts | 249° |
| 2026-04-28 13:29 | 64.80861 | -50.12520 | 29030 ft | 415 kts | 249° |
| 2026-04-28 13:29 | 64.79620 | -50.18580 | 28346 ft | 411 kts | 249° |
| 2026-04-28 13:30 | 64.78396 | -50.24576 | 27709 ft | 404 kts | 249° |
| 2026-04-28 13:30 | 64.77192 | -50.30500 | 27077 ft | 400 kts | 250° |
| 2026-04-28 13:30 | 64.76001 | -50.36349 | 26440 ft | 396 kts | 250° |
| 2026-04-28 13:30 | 64.74819 | -50.42141 | 25846 ft | 391 kts | 250° |
| 2026-04-28 13:31 | 64.72510 | -50.53459 | 24687 ft | 382 kts | 250° |
| 2026-04-28 13:31 | 64.71365 | -50.59042 | 24115 ft | 378 kts | 251° |
| 2026-04-28 13:31 | 64.70230 | -50.64555 | 23550 ft | 374 kts | 251° |
| 2026-04-28 13:32 | 64.69103 | -50.70008 | 22889 ft | 371 kts | 251° |
| 2026-04-28 13:32 | 64.68003 | -50.75331 | 22243 ft | 367 kts | 251° |
| 2026-04-28 13:32 | 64.66882 | -50.80739 | 21571 ft | 363 kts | 250° |
| 2026-04-28 13:32 | 64.65799 | -50.85944 | 20974 ft | 360 kts | 250° |
| 2026-04-28 13:33 | 64.64697 | -50.91234 | 20392 ft | 356 kts | 250° |
| 2026-04-28 13:33 | 64.63616 | -50.96406 | 19811 ft | 353 kts | 250° |
| 2026-04-28 13:33 | 64.62557 | -51.01460 | 19249 ft | 350 kts | 250° |
| 2026-04-28 13:33 | 64.61493 | -51.06535 | 18679 ft | 347 kts | 250° |
| 2026-04-28 13:34 | 64.60440 | -51.11547 | 18071 ft | 344 kts | 250° |
| 2026-04-28 13:34 | 64.59405 | -51.16458 | 17452 ft | 341 kts | 250° |
| 2026-04-28 13:34 | 64.58364 | -51.21398 | 16842 ft | 339 kts | 250° |
| 2026-04-28 13:34 | 64.57329 | -51.26297 | 16260 ft | 336 kts | 250° |
| 2026-04-28 13:35 | 64.56297 | -51.31166 | 15688 ft | 334 kts | 249° |
| 2026-04-28 13:35 | 64.55268 | -51.35926 | 15137 ft | 333 kts | 247° |
| 2026-04-28 13:35 | 64.53834 | -51.40242 | 14553 ft | 342 kts | 226° |
| 2026-04-28 13:35 | 64.51775 | -51.43063 | 13982 ft | 351 kts | 204° |
| 2026-04-28 13:36 | 64.49366 | -51.44164 | 13437 ft | 353 kts | 190° |
| 2026-04-28 13:36 | 64.46934 | -51.44727 | 12889 ft | 349 kts | 189° |
| 2026-04-28 13:36 | 64.44535 | -51.45316 | 12364 ft | 345 kts | 190° |
| 2026-04-28 13:36 | 64.42163 | -51.45980 | 11814 ft | 342 kts | 191° |
| 2026-04-28 13:37 | 64.39829 | -51.46684 | 11326 ft | 337 kts | 191° |
| 2026-04-28 13:37 | 64.37522 | -51.47399 | 10894 ft | 332 kts | 191° |
| 2026-04-28 13:37 | 64.35262 | -51.48114 | 10585 ft | 322 kts | 191° |
| 2026-04-28 13:37 | 64.33084 | -51.48807 | 10372 ft | 310 kts | 191° |
| 2026-04-28 13:38 | 64.30985 | -51.49473 | 10202 ft | 299 kts | 191° |
| 2026-04-28 13:38 | 64.28946 | -51.50121 | 9902 ft | 293 kts | 191° |
| 2026-04-28 13:38 | 64.26931 | -51.50767 | 9487 ft | 292 kts | 191° |
| 2026-04-28 13:38 | 64.24924 | -51.51407 | 9113 ft | 291 kts | 191° |
| 2026-04-28 13:39 | 64.22918 | -51.52044 | 8746 ft | 291 kts | 191° |
| 2026-04-28 13:39 | 64.20920 | -51.52676 | 8399 ft | 288 kts | 191° |
| 2026-04-28 13:39 | 64.18954 | -51.53295 | 8050 ft | 283 kts | 191° |
| 2026-04-28 13:39 | 64.17015 | -51.53906 | 7727 ft | 280 kts | 191° |
| 2026-04-28 13:40 | 64.15099 | -51.54510 | 7418 ft | 279 kts | 191° |
| 2026-04-28 13:40 | 64.13187 | -51.55114 | 7095 ft | 279 kts | 190° |
| 2026-04-28 13:40 | 64.11273 | -51.55713 | 6761 ft | 275 kts | 190° |
| 2026-04-28 13:40 | 64.09394 | -51.56301 | 6435 ft | 272 kts | 190° |
| 2026-04-28 13:41 | 64.07520 | -51.56890 | 6077 ft | 271 kts | 190° |
| 2026-04-28 13:41 | 64.05677 | -51.57465 | 5964 ft | 260 kts | 189° |
| 2026-04-28 13:41 | 64.03942 | -51.58004 | 5961 ft | 243 kts | 190° |
| 2026-04-28 13:41 | 64.02274 | -51.58523 | 5971 ft | 242 kts | 190° |
| 2026-04-28 13:42 | 64.00608 | -51.59044 | 5981 ft | 242 kts | 191° |
| 2026-04-28 13:42 | 63.99043 | -51.60154 | 5987 ft | 237 kts | 216° |
| 2026-04-28 13:42 | 63.97977 | -51.62804 | 5987 ft | 218 kts | 249° |
| 2026-04-28 13:42 | 63.97692 | -51.66046 | 5742 ft | 202 kts | 277° |
| 2026-04-28 13:43 | 63.98032 | -51.69085 | 5349 ft | 197 kts | 292° |
| 2026-04-28 13:43 | 63.98517 | -51.71995 | 4926 ft | 197 kts | 291° |
| 2026-04-28 13:43 | 63.98962 | -51.74880 | 4533 ft | 195 kts | 290° |
| 2026-04-28 13:43 | 63.99485 | -51.77733 | 4154 ft | 198 kts | 304° |
| 2026-04-28 13:44 | 64.00473 | -51.79847 | 3747 ft | 197 kts | 333° |
| 2026-04-28 13:44 | 64.01788 | -51.80528 | 3388 ft | 192 kts | 1° |
| 2026-04-28 13:44 | 64.03038 | -51.79962 | 3280 ft | 176 kts | 16° |
| 2026-04-28 13:44 | 64.04138 | -51.79048 | 3145 ft | 161 kts | 15° |
| 2026-04-28 13:45 | 64.05158 | -51.78277 | 2966 ft | 151 kts | 15° |
| 2026-04-28 13:45 | 64.06157 | -51.77536 | 2820 ft | 149 kts | 15° |
| 2026-04-28 13:45 | 64.07154 | -51.76800 | 2697 ft | 150 kts | 15° |
| 2026-04-28 13:45 | 64.08151 | -51.76063 | 2536 ft | 150 kts | 15° |
| 2026-04-28 13:46 | 64.09142 | -51.75331 | 2337 ft | 146 kts | 14° |
| 2026-04-28 13:46 | 64.10051 | -51.74657 | 2139 ft | 133 kts | 14° |
| 2026-04-28 13:46 | 64.10928 | -51.74009 | 1940 ft | 132 kts | 15° |
| 2026-04-28 13:46 | 64.11802 | -51.73363 | 1741 ft | 132 kts | 14° |
| 2026-04-28 13:47 | 64.12674 | -51.72716 | 1544 ft | 131 kts | 14° |
| 2026-04-28 13:47 | 64.13543 | -51.72072 | 1352 ft | 131 kts | 14° |
| 2026-04-28 13:47 | 64.14411 | -51.71428 | 1144 ft | 131 kts | 15° |
| 2026-04-28 13:47 | 64.15276 | -51.70784 | 932 ft | 131 kts | 14° |
| 2026-04-28 13:48 | 64.16140 | -51.70143 | 739 ft | 131 kts | 15° |
| 2026-04-28 13:48 | 64.17004 | -51.69490 | 569 ft | 131 kts | 16° |
| 2026-04-28 13:48 | 64.17870 | -51.68829 | 374 ft | 130 kts | 15° |
| 2026-04-28 13:48 | 64.18707 | -51.68212 | 289 ft | 116 kts | 14° |
| 2026-04-28 13:49 | 64.19306 | -51.67781 | 284 ft | 61 kts | 18° |
| 2026-04-28 13:49 | 64.19572 | -51.67587 | 288 ft | 34 kts | 17° |
| 2026-04-28 13:49 | 64.19789 | -51.67428 | 288 ft | 31 kts | 18° |
| 2026-04-28 13:49 | 64.19948 | -51.67369 | 286 ft | 18 kts | 350° |
| 2026-04-28 13:50 | 64.20007 | -51.67320 | 287 ft | 9 kts | 77° |
| 2026-04-28 13:50 | 64.19957 | -51.67286 | 286 ft | 11 kts | 207° |
| 2026-04-28 13:50 | 64.19877 | -51.67355 | 287 ft | 13 kts | 199° |
| 2026-04-28 13:50 | 64.19780 | -51.67431 | 288 ft | 16 kts | 198° |
| 2026-04-28 13:51 | 64.19669 | -51.67513 | 293 ft | 18 kts | 198° |
| 2026-04-28 13:51 | 64.19547 | -51.67602 | 288 ft | 19 kts | 197° |
| 2026-04-28 13:51 | 64.19417 | -51.67694 | 285 ft | 20 kts | 197° |
| 2026-04-28 13:51 | 64.19280 | -51.67795 | 284 ft | 21 kts | 198° |
| 2026-04-28 13:52 | 64.19153 | -51.67888 | 287 ft | 15 kts | 197° |
| 2026-04-28 13:52 | 64.19094 | -51.67799 | 287 ft | 4 kts | 108° |
| 2026-04-28 13:52 | 64.19090 | -51.67765 | 287 ft | 3 kts | 108° |
| 2026-04-28 13:52 | 64.19081 | -51.67703 | 287 ft | 5 kts | 108° |
| 2026-04-28 13:53 | 64.19065 | -51.67613 | 287 ft | 7 kts | 134° |
| 2026-04-28 13:53 | 64.19011 | -51.67616 | 287 ft | 9 kts | 198° |
| 2026-04-28 13:53 | 64.18941 | -51.67668 | 287 ft | 12 kts | 198° |
| 2026-04-28 13:53 | 64.18857 | -51.67730 | 287 ft | 14 kts | 198° |
| 2026-04-28 13:54 | 64.18759 | -51.67801 | 287 ft | 16 kts | 198° |
| 2026-04-28 13:54 | 64.18649 | -51.67881 | 287 ft | 17 kts | 198° |
| 2026-04-28 13:54 | 64.18581 | -51.67931 | 287 ft | 8 kts | 198° |
| 2026-04-28 13:54 | 64.18534 | -51.67926 | 287 ft | 6 kts | 128° |
| 2026-04-28 13:55 | 64.18522 | -51.67854 | 287 ft | 0 kts | 106° |
| 2026-04-28 13:55 | 64.18523 | -51.67854 | 287 ft | 0 kts | 106° |
| 2026-04-28 13:55 | 64.18521 | -51.67845 | 287 ft | 2 kts | 106° |
| 2026-04-28 13:55 | 64.18521 | -51.67840 | 287 ft | 0 kts | 107° |